createdAt,value
2022-08-07T00:03:03.668Z,25.80
2022-08-07T00:08:09.845Z,25.70
2022-08-07T00:13:25.795Z,25.70
2022-08-07T00:18:34.097Z,25.70
2022-08-07T00:23:43.002Z,25.70
2022-08-07T00:28:56.560Z,25.70
2022-08-07T00:34:02.972Z,25.70
2022-08-07T00:39:08.316Z,25.80
2022-08-07T00:44:18.805Z,25.80
2022-08-07T00:50:20.545Z,25.80
2022-08-07T00:54:54.279Z,25.90
2022-08-07T01:00:00.752Z,26.00
2022-08-07T01:05:19.250Z,26.20
2022-08-07T01:10:26.337Z,26.40
2022-08-07T01:16:01.112Z,26.50
2022-08-07T01:21:29.098Z,26.80
2022-08-07T01:26:37.174Z,26.90
2022-08-07T01:31:48.123Z,27.10
2022-08-07T01:36:57.863Z,27.20
2022-08-07T01:42:39.491Z,27.20
2022-08-07T01:48:29.713Z,27.50
2022-08-07T01:53:08.504Z,27.90
2022-08-07T01:58:29.611Z,28.20
2022-08-07T02:03:48.766Z,28.30
2022-08-07T02:08:59.392Z,28.40
2022-08-07T02:14:35.503Z,28.60
2022-08-07T02:20:06.839Z,28.70
2022-08-07T02:25:17.502Z,28.10
2022-08-07T02:30:35.657Z,28.00
2022-08-07T02:36:29.538Z,28.10
2022-08-07T02:41:12.448Z,28.10
2022-08-07T02:46:34.410Z,28.40
2022-08-07T02:51:52.046Z,28.40
2022-08-07T02:57:06.543Z,28.70
2022-08-07T03:02:14.827Z,28.70
2022-08-07T03:08:04.601Z,28.40
2022-08-07T03:12:50.239Z,27.90
2022-08-07T03:17:59.110Z,27.40
2022-08-07T03:23:06.854Z,26.90
2022-08-07T03:28:38.258Z,27.10
2022-08-07T03:33:54.042Z,27.10
2022-08-07T03:39:11.566Z,26.90
2022-08-07T03:44:21.669Z,27.10
2022-08-07T03:49:39.460Z,27.40
2022-08-07T03:54:55.168Z,27.50
2022-08-07T04:00:04.325Z,27.60
2022-08-07T04:05:39.652Z,27.80
2022-08-07T04:12:24.145Z,28.20
2022-08-07T04:16:31.585Z,28.60
2022-08-07T04:21:59.742Z,29.00
2022-08-07T04:27:20.475Z,29.70
2022-08-07T04:32:36.914Z,30.50
2022-08-07T04:38:03.520Z,30.80
2022-08-07T04:43:10.621Z,30.90
2022-08-07T04:48:53.393Z,30.60
2022-08-07T04:54:05.997Z,30.50
2022-08-07T05:00:11.363Z,30.50
2022-08-07T05:05:53.911Z,29.70
2022-08-07T05:11:58.316Z,30.20
2022-08-07T05:17:11.988Z,31.70
2022-08-07T05:22:27.651Z,32.80
2022-08-07T05:28:03.432Z,33.50
2022-08-07T05:33:06.221Z,34.70
2022-08-07T05:38:58.274Z,36.10
2022-08-07T05:43:49.612Z,37.20
2022-08-07T05:49:12.627Z,37.70
2022-08-07T05:54:30.943Z,35.90
2022-08-07T05:59:57.405Z,35.90
2022-08-07T06:05:19.670Z,36.90
2022-08-07T06:10:32.759Z,37.60
2022-08-07T06:15:42.395Z,36.50
2022-08-07T06:22:15.936Z,35.90
2022-08-07T06:26:27.402Z,36.50
2022-08-07T06:31:47.008Z,35.70
2022-08-07T06:36:59.130Z,34.50
2022-08-07T06:42:32.937Z,34.10
2022-08-07T06:47:59.044Z,34.40
2022-08-07T06:53:18.634Z,34.50
2022-08-07T07:00:12.871Z,34.20
2022-08-07T07:04:32.138Z,34.40
2022-08-07T07:09:37.155Z,33.40
2022-08-07T07:15:26.400Z,33.00
2022-08-07T07:20:41.818Z,32.70
2022-08-07T07:26:32.361Z,31.80
2022-08-07T07:31:46.658Z,31.50
2022-08-07T07:36:54.455Z,33.00
2022-08-07T07:42:13.362Z,35.30
2022-08-07T07:47:25.793Z,36.00
2022-08-07T07:52:35.955Z,35.30
2022-08-07T07:57:52.361Z,33.20
2022-08-07T08:03:16.371Z,31.90
2022-08-07T08:08:35.889Z,31.20
2022-08-07T08:13:54.592Z,30.60
2022-08-07T08:19:17.416Z,29.70
2022-08-07T08:24:46.586Z,28.80
2022-08-07T08:29:58.439Z,28.10
2022-08-07T08:35:19.159Z,27.80
2022-08-07T08:40:34.835Z,27.70
2022-08-07T08:45:59.372Z,27.80
2022-08-07T08:52:13.200Z,28.30
2022-08-07T08:56:56.769Z,28.70
2022-08-07T09:02:36.664Z,28.80
2022-08-07T09:08:24.282Z,29.10
2022-08-07T09:14:07.836Z,29.20
2022-08-07T09:19:51.219Z,29.40
2022-08-07T09:25:17.347Z,29.40
2022-08-07T09:30:28.233Z,29.50
2022-08-07T09:36:03.865Z,29.60
2022-08-07T09:41:58.492Z,29.70
2022-08-07T09:47:50.261Z,29.60
2022-08-07T09:52:54.509Z,29.70
2022-08-07T09:58:12.519Z,29.60
2022-08-07T10:04:04.974Z,29.60
2022-08-07T10:10:00.707Z,29.50
2022-08-07T10:15:44.291Z,29.50
2022-08-07T10:21:50.517Z,29.40
2022-08-07T10:26:44.197Z,29.40
2022-08-07T10:32:03.765Z,29.30
2022-08-07T10:37:26.551Z,29.30
2022-08-07T10:43:15.835Z,29.30
2022-08-07T10:48:44.044Z,29.20
2022-08-07T10:53:50.694Z,29.20
2022-08-07T10:59:30.443Z,29.10
2022-08-07T11:05:12.984Z,29.00
2022-08-07T11:10:32.102Z,28.80
2022-08-07T11:15:43.104Z,28.70
2022-08-07T11:21:31.886Z,28.50
2022-08-07T11:27:04.655Z,28.40
2022-08-07T11:32:25.848Z,28.30
2022-08-07T11:38:12.530Z,28.20
2022-08-07T11:44:11.448Z,28.10
2022-08-07T11:50:11.223Z,28.10
2022-08-07T11:56:12.039Z,28.10
2022-08-07T12:01:27.104Z,28.00
2022-08-07T12:07:20.322Z,28.00
2022-08-07T12:12:43.014Z,28.00
2022-08-07T12:18:03.078Z,28.00
2022-08-07T12:24:05.092Z,28.00
2022-08-07T12:29:08.824Z,28.10
2022-08-07T12:34:20.597Z,28.10
2022-08-07T12:39:44.040Z,28.10
2022-08-07T12:45:05.760Z,28.20
2022-08-07T12:50:38.864Z,28.20
2022-08-07T12:56:21.589Z,28.20
2022-08-07T13:02:14.005Z,28.30
2022-08-07T13:08:14.298Z,28.30
2022-08-07T13:13:12.464Z,28.40
2022-08-07T13:18:59.913Z,28.40
2022-08-07T13:24:21.162Z,28.30
2022-08-07T13:29:35.616Z,28.30
2022-08-07T13:35:15.906Z,28.30
2022-08-07T13:40:55.717Z,28.20
2022-08-07T13:46:21.031Z,28.10
2022-08-07T13:52:05.496Z,28.10
2022-08-07T13:57:02.195Z,28.00
2022-08-07T14:02:16.806Z,27.90
2022-08-07T14:07:27.552Z,28.00
2022-08-07T14:12:57.210Z,27.90
2022-08-07T14:18:37.966Z,27.90
2022-08-07T14:24:01.089Z,27.80
2022-08-07T14:30:05.394Z,27.90
2022-08-07T14:34:45.903Z,27.90
2022-08-07T14:40:16.780Z,27.90
2022-08-07T14:45:22.663Z,27.90
2022-08-07T14:56:05.009Z,27.80
2022-08-07T15:06:51.318Z,27.70
2022-08-07T15:12:02.510Z,27.80
2022-08-07T15:17:19.185Z,27.80
2022-08-07T15:22:33.452Z,27.80
2022-08-07T15:28:32.805Z,27.70
2022-08-07T15:33:19.365Z,27.60
2022-08-07T15:38:59.208Z,27.60
2022-08-07T15:44:08.885Z,27.60
2022-08-07T15:49:18.187Z,27.40
2022-08-07T15:54:27.835Z,27.40
2022-08-07T15:59:39.058Z,27.30
2022-08-07T16:04:46.757Z,27.40
2022-08-07T16:09:55.986Z,27.30
2022-08-07T16:15:54.921Z,27.30
2022-08-07T16:21:56.777Z,27.30
2022-08-07T16:27:17.922Z,27.30
2022-08-07T16:32:34.929Z,27.20
2022-08-07T16:38:03.626Z,27.20
2022-08-07T16:44:05.789Z,27.20
2022-08-07T16:50:20.672Z,27.10
2022-08-07T16:55:03.225Z,27.10
2022-08-07T17:00:29.423Z,27.10
2022-08-07T17:06:26.624Z,27.10
2022-08-07T17:11:15.070Z,27.10
2022-08-07T17:16:31.526Z,27.10
2022-08-07T17:21:52.805Z,27.10
2022-08-07T17:27:04.966Z,27.10
2022-08-07T17:32:53.363Z,27.00
2022-08-07T17:38:32.056Z,27.00
2022-08-07T17:44:02.891Z,27.00
2022-08-07T17:49:39.358Z,27.00
2022-08-07T17:55:05.177Z,27.00
2022-08-07T18:00:33.104Z,27.00
2022-08-07T18:06:16.878Z,27.00
2022-08-07T18:12:17.625Z,26.90
2022-08-07T18:18:33.039Z,26.90
2022-08-07T18:23:42.179Z,26.90
2022-08-07T18:29:00.109Z,26.80
2022-08-07T18:35:00.514Z,26.90
2022-08-07T18:40:42.819Z,26.80
2022-08-07T18:46:25.261Z,26.80
2022-08-07T18:52:33.817Z,26.70
2022-08-07T18:57:40.270Z,26.80
2022-08-07T19:03:15.921Z,26.80
2022-08-07T19:08:48.303Z,26.80
2022-08-07T19:13:57.337Z,26.80
2022-08-07T19:19:13.877Z,26.80
2022-08-07T19:24:32.336Z,26.70
2022-08-07T19:30:56.024Z,26.70
2022-08-07T19:35:15.981Z,26.60
2022-08-07T19:40:31.515Z,26.60
2022-08-07T19:46:06.053Z,26.60
2022-08-07T19:51:19.269Z,26.60
2022-08-07T19:58:01.098Z,26.60
2022-08-07T20:02:00.104Z,26.60
2022-08-07T20:07:10.148Z,26.60
2022-08-07T20:12:32.227Z,26.50
2022-08-07T20:17:43.801Z,26.50
2022-08-07T20:22:50.766Z,26.50
2022-08-07T20:28:03.520Z,26.50
2022-08-07T20:33:24.510Z,26.50
2022-08-07T20:38:53.348Z,26.50
2022-08-07T20:44:06.366Z,26.40
2022-08-07T20:49:58.223Z,26.40
2022-08-07T20:54:53.647Z,26.40
2022-08-07T21:00:09.608Z,26.50
2022-08-07T21:05:42.911Z,26.40
2022-08-07T21:10:47.929Z,26.40
2022-08-07T21:16:00.835Z,26.40
2022-08-07T21:21:08.002Z,26.30
2022-08-07T21:26:30.882Z,26.30
2022-08-07T21:32:47.575Z,26.30
2022-08-07T21:38:00.226Z,26.20
2022-08-07T21:43:23.050Z,26.20
2022-08-07T21:48:56.519Z,26.20
2022-08-07T21:54:37.995Z,26.20
2022-08-07T22:00:04.698Z,26.20
2022-08-07T22:05:45.333Z,26.20
2022-08-07T22:10:56.995Z,26.20
2022-08-07T22:16:43.042Z,26.10
2022-08-07T22:22:01.905Z,26.20
2022-08-07T22:28:02.847Z,26.20
2022-08-07T22:33:09.301Z,26.20
2022-08-07T22:39:00.787Z,26.20
2022-08-07T22:44:18.728Z,26.20
2022-08-07T22:50:01.587Z,26.20
2022-08-07T22:55:37.926Z,26.20
2022-08-07T23:00:59.165Z,26.30
2022-08-07T23:06:38.757Z,26.30
2022-08-07T23:11:59.363Z,26.40
2022-08-07T23:17:20.174Z,26.50
2022-08-07T23:23:02.091Z,26.50
2022-08-07T23:28:53.300Z,26.60
2022-08-07T23:34:21.984Z,26.60
2022-08-07T23:40:15.241Z,26.60
2022-08-07T23:46:01.957Z,26.80
2022-08-07T23:53:05.925Z,27.00
2022-08-07T23:56:55.623Z,27.10
